Berea, WV (26327)

8:18 AM EDT on September 02, 2014 (GMT -0400)
W8PY @ Harmony | Change Station
CLOSE
Current Station
Personal Weather Station
Location: West Union, WV
Elevation: 852 ft
Nearby Weather Stations

Elev 852 ft 39.17 °N, 80.82 °W | Updated 6 minutes ago

Overcast
Overcast
69.0 °F
Feels Like 69.0 °F
N
0.0
Wind Variable Wind from WSW
Gusts 0.0 mph

Today
High -- | Low -- °F
--% Chance of Precip.
Yesterday
High -- | Low -- °F
Precip. -- in
6:53 AM 7:52 PM
Waxing Crescent, 51% visible
Pressure 30.03 in
Visibility 10.0 miles
Clouds Mostly Cloudy 3800 ft
Dew Point 68 °F
Humidity 97%
Rainfall 0.00 in
Snow Depth Not available.
UV 0 out of 12
Pollen 8.50 out of 12
Air Quality Not available.
Flu Activity Not available.
SPECI KPKB 021201Z 00000KT 10SM VCTS BKN038 22/21 A3003 RMK AO2 LTG DSNT E AND NW T02220211

More Conditions Fewer Conditions

Pressure 30.03 in
Visibility 10.0 miles
Clouds Mostly Cloudy 3800 ft
Dew Point 68 °F
Humidity 97%
Rainfall 0.00 in
Snow Depth Not available.
UV 0 out of 12
Pollen 8.50 out of 12
Air Quality Not available.
Flu Activity Not available.
SPECI KPKB 021201Z 00000KT 10SM VCTS BKN038 22/21 A3003 RMK AO2 LTG DSNT E AND NW T02220211

More Conditions Fewer Conditions

10-Day Weather Forecast

Almanac

Astronomy

Sep. 02, 2014 Rise Set
Actual Time 6:53 AM EDT 7:52 PM EDT
Civil Twilight 6:25 AM EDT 8:20 PM EDT
Nautical Twilight 5:53 AM EDT 8:52 PM EDT
Astronomical Twilight 5:19 AM EDT 9:26 PM EDT
Moon 2:33 PM EDT No Moon Set
Length of Visible Light 13h 54m
Length of Day
12h 59m
Tomorrow will be 2m 27s shorter.
Waxing Crescent, 51% of the Moon is Illuminated
Today
Waxing Crescent
Sep 8
Full
Sep 15
Last Quarter
Sep 24
New
Oct 1
First Quarter

Today's Extremes

State Highs State Lows

Community

WunderPhotos

Upload Photos

1,749,638 photos uploaded!

WunderBlogs® & News

By Dr. Jeff Masters
Director of Meteorology, Weather Underground
By Kari Strenfel
Meteorologist, Weather Underground
By Christopher C. Burt
Weather Historian, Weather Underground
September 2, 2014
September 2, 2014
September 2, 2014

Nearby

Snow Depth

Station Depth Elevation
No new snow has been reported.

Earthquake Activity

City Distance Mag. Time & Date
No recent earthquake activity has been reported nearby.
Minimum magnitude displayed is 2.5.

Coastal Water Temperatures

Place Temperature
No Stations Reporting

Nearby Weather Stations